createdAt,value
2019-03-05T21:35:00.506Z,99200.02
2019-03-05T21:37:31.742Z,99222.16
2019-03-05T21:40:02.643Z,99233.67
2019-03-05T21:42:33.513Z,99238.61
2019-03-05T21:45:07.220Z,99226.30
2019-03-05T21:47:38.201Z,99230.86
2019-03-05T21:50:12.352Z,99233.14
2019-03-05T21:52:43.239Z,99246.91
2019-03-05T21:55:16.500Z,99261.80
2019-03-05T21:57:47.732Z,99254.48
2019-03-05T22:00:21.698Z,99244.34
2019-03-05T22:02:52.872Z,99249.88
2019-03-05T22:05:23.759Z,99250.66
2019-03-05T22:07:54.724Z,99259.53
2019-03-05T22:10:25.591Z,99260.22
2019-03-05T22:12:56.517Z,99259.85
2019-03-05T22:15:36.882Z,99269.09
2019-03-05T22:18:07.753Z,99272.69
2019-03-05T22:20:38.656Z,99274.58
2019-03-05T22:23:09.703Z,99266.94
2019-03-05T22:25:40.603Z,99287.81
2019-03-05T22:28:11.502Z,99281.78
2019-03-05T22:30:42.466Z,99288.84
2019-03-05T22:33:14.536Z,99287.52
2019-03-05T22:35:46.299Z,99294.20
2019-03-05T22:38:17.291Z,99300.83
2019-03-05T22:40:48.160Z,99305.19
2019-03-05T22:43:19.361Z,99310.97
2019-03-05T22:45:52.631Z,99318.69
2019-03-05T22:48:23.434Z,99324.63
2019-03-05T22:50:54.286Z,99326.30
2019-03-05T22:53:25.217Z,99320.39
2019-03-05T22:55:56.988Z,99321.72
2019-03-05T22:58:27.825Z,99326.78
2019-03-05T23:01:05.446Z,99339.72
2019-03-05T23:03:36.936Z,99336.77
2019-03-05T23:06:10.876Z,99345.47
2019-03-05T23:08:41.787Z,99335.69
2019-03-05T23:11:12.643Z,99346.33
2019-03-05T23:13:44.737Z,99351.30
2019-03-05T23:16:15.694Z,99342.89
2019-03-05T23:18:47.137Z,99345.97
2019-03-05T23:21:19.175Z,99360.90
2019-03-05T23:23:50.364Z,99366.16
2019-03-05T23:26:21.155Z,99363.75
2019-03-05T23:28:52.071Z,99365.45
2019-03-05T23:31:22.869Z,99356.38
2019-03-05T23:33:53.789Z,99364.87
2019-03-05T23:36:24.635Z,99362.53
2019-03-05T23:38:55.697Z,99354.48
2019-03-05T23:41:26.590Z,99356.69
2019-03-05T23:43:57.419Z,99358.14
2019-03-05T23:46:28.764Z,99357.91
2019-03-05T23:48:59.590Z,99362.55
2019-03-05T23:51:30.440Z,99358.45
2019-03-05T23:54:01.450Z,99352.44
2019-03-05T23:56:32.267Z,99363.56
2019-03-05T23:59:03.092Z,99360.40
